sensor_id;sensor_type;location;lat;lon;timestamp;pressure;altitude;pressure_sealevel;temperature;humidity
6194;BME280;3130;41.564;23.280;2023-02-02T00:00:56;99077.31;;;3.20;74.34
6194;BME280;3130;41.564;23.280;2023-02-02T00:03:25;98875.13;;;1.90;74.75
6194;BME280;3130;41.564;23.280;2023-02-02T00:05:53;99190.19;;;3.89;75.93
6194;BME280;3130;41.564;23.280;2023-02-02T00:08:22;99062.63;;;3.32;74.64
6194;BME280;3130;41.564;23.280;2023-02-02T00:10:53;98975.44;;;2.82;73.98
6194;BME280;3130;41.564;23.280;2023-02-02T00:13:22;98808.16;;;1.75;74.55
6194;BME280;3130;41.564;23.280;2023-02-02T00:15:53;98826.97;;;1.64;74.42
6194;BME280;3130;41.564;23.280;2023-02-02T00:18:21;99205.78;;;3.77;74.45
6194;BME280;3130;41.564;23.280;2023-02-02T00:20:51;98976.47;;;2.46;74.91
6194;BME280;3130;41.564;23.280;2023-02-02T00:23:18;99188.91;;;3.76;75.13
6194;BME280;3130;41.564;23.280;2023-02-02T00:25:51;99195.63;;;3.77;75.51
6194;BME280;3130;41.564;23.280;2023-02-02T00:28:18;98849.06;;;1.88;75.45
6194;BME280;3130;41.564;23.280;2023-02-02T00:30:45;99037.41;;;2.99;75.20
6194;BME280;3130;41.564;23.280;2023-02-02T00:33:13;99189.22;;;3.95;74.81
6194;BME280;3130;41.564;23.280;2023-02-02T00:35:41;98892.34;;;2.38;74.95
6194;BME280;3130;41.564;23.280;2023-02-02T00:38:09;99182.66;;;4.15;74.40
6194;BME280;3130;41.564;23.280;2023-02-02T00:40:36;99196.69;;;4.26;75.19
6194;BME280;3130;41.564;23.280;2023-02-02T00:43:05;99071.78;;;3.64;74.49
6194;BME280;3130;41.564;23.280;2023-02-02T00:45:32;99194.38;;;4.19;74.42
6194;BME280;3130;41.564;23.280;2023-02-02T00:47:58;98986.09;;;2.93;74.02
6194;BME280;3130;41.564;23.280;2023-02-02T00:50:25;99014.03;;;3.18;74.10
6194;BME280;3130;41.564;23.280;2023-02-02T00:52:53;99195.03;;;4.25;74.14
6194;BME280;3130;41.564;23.280;2023-02-02T00:55:20;98846.41;;;2.22;74.20
6194;BME280;3130;41.564;23.280;2023-02-02T00:57:47;99171.66;;;4.14;74.26
6194;BME280;3130;41.564;23.280;2023-02-02T01:00:21;98867.84;;;2.38;74.37
6194;BME280;3130;41.564;23.280;2023-02-02T01:02:48;99028.19;;;3.53;74.53
6194;BME280;3130;41.564;23.280;2023-02-02T01:05:16;98987.34;;;3.36;74.03
6194;BME280;3130;41.564;23.280;2023-02-02T01:07:44;99179.00;;;4.51;74.27
6194;BME280;3130;41.564;23.280;2023-02-02T01:10:13;99127.28;;;4.27;73.58
6194;BME280;3130;41.564;23.280;2023-02-02T01:12:41;98946.72;;;3.10;73.67
6194;BME280;3130;41.564;23.280;2023-02-02T01:15:10;99167.13;;;4.51;74.16
6194;BME280;3130;41.564;23.280;2023-02-02T01:17:40;98856.22;;;2.62;74.13
6194;BME280;3130;41.564;23.280;2023-02-02T01:20:14;98825.56;;;2.43;74.07
6194;BME280;3130;41.564;23.280;2023-02-02T01:22:41;98923.28;;;3.03;74.54
6194;BME280;3130;41.564;23.280;2023-02-02T01:25:11;98955.66;;;3.21;74.57
6194;BME280;3130;41.564;23.280;2023-02-02T01:27:39;99145.84;;;4.29;74.49
6194;BME280;3130;41.564;23.280;2023-02-02T01:30:08;99034.47;;;3.69;74.82
6194;BME280;3130;41.564;23.280;2023-02-02T01:32:35;99125.41;;;4.32;74.16
6194;BME280;3130;41.564;23.280;2023-02-02T01:35:05;99166.34;;;4.49;74.93
6194;BME280;3130;41.564;23.280;2023-02-02T01:37:32;99153.53;;;4.52;74.31
6194;BME280;3130;41.564;23.280;2023-02-02T01:39:59;99039.16;;;3.81;74.33
6194;BME280;3130;41.564;23.280;2023-02-02T01:42:27;99144.34;;;4.50;73.67
6194;BME280;3130;41.564;23.280;2023-02-02T01:45:15;99149.06;;;4.34;75.04
6194;BME280;3130;41.564;23.280;2023-02-02T01:47:51;98801.72;;;2.23;75.13
6194;BME280;3130;41.564;23.280;2023-02-02T01:50:29;99145.94;;;4.26;74.68
6194;BME280;3130;41.564;23.280;2023-02-02T01:52:59;98825.19;;;2.28;75.19
6194;BME280;3130;41.564;23.280;2023-02-02T01:55:30;98948.47;;;2.81;75.75
6194;BME280;3130;41.564;23.280;2023-02-02T01:58:02;99066.44;;;3.16;77.14
6194;BME280;3130;41.564;23.280;2023-02-02T02:00:30;98807.84;;;1.55;77.38
6194;BME280;3130;41.564;23.280;2023-02-02T02:03:00;98804.44;;;1.56;77.44
6194;BME280;3130;41.564;23.280;2023-02-02T02:05:33;98788.56;;;1.51;77.23
6194;BME280;3130;41.564;23.280;2023-02-02T02:08:07;98946.28;;;2.38;77.68
6194;BME280;3130;41.564;23.280;2023-02-02T02:10:36;99116.84;;;3.54;77.44
6194;BME280;3130;41.564;23.280;2023-02-02T02:13:05;98919.16;;;2.43;77.51
6194;BME280;3130;41.564;23.280;2023-02-02T02:15:39;99081.81;;;3.39;77.57
6194;BME280;3130;41.564;23.280;2023-02-02T02:18:42;99146.81;;;3.71;76.56
6194;BME280;3130;41.564;23.280;2023-02-02T02:24:56;99145.31;;;3.64;77.72
6194;BME280;3130;41.564;23.280;2023-02-02T02:28:24;99148.72;;;3.63;77.69
6194;BME280;3130;41.564;23.280;2023-02-02T02:31:18;99114.72;;;3.41;77.26
6194;BME280;3130;41.564;23.280;2023-02-02T02:33:57;98957.13;;;2.43;77.62
6194;BME280;3130;41.564;23.280;2023-02-02T02:36:32;99159.16;;;3.52;77.75
6194;BME280;3130;41.564;23.280;2023-02-02T02:39:09;99001.97;;;2.69;77.37
6194;BME280;3130;41.564;23.280;2023-02-02T02:41:42;99154.34;;;3.43;78.43
6194;BME280;3130;41.564;23.280;2023-02-02T02:44:14;99048.28;;;2.72;78.14
6194;BME280;3130;41.564;23.280;2023-02-02T02:46:43;99148.97;;;3.25;78.27
6194;BME280;3130;41.564;23.280;2023-02-02T02:49:14;99119.84;;;3.09;78.80
6194;BME280;3130;41.564;23.280;2023-02-02T02:51:44;99165.59;;;3.03;78.88
6194;BME280;3130;41.564;23.280;2023-02-02T02:54:14;98806.09;;;0.54;79.69
6194;BME280;3130;41.564;23.280;2023-02-02T02:56:51;99070.56;;;1.92;80.95
6194;BME280;3130;41.564;23.280;2023-02-02T02:59:32;98927.63;;;1.10;81.03
6194;BME280;3130;41.564;23.280;2023-02-02T03:02:23;99150.75;;;2.21;82.63
6194;BME280;3130;41.564;23.280;2023-02-02T03:05:18;99013.50;;;1.09;83.76
6194;BME280;3130;41.564;23.280;2023-02-02T03:08:02;98795.31;;;-0.32;84.27
6194;BME280;3130;41.564;23.280;2023-02-02T03:10:39;99151.59;;;1.86;85.35
6194;BME280;3130;41.564;23.280;2023-02-02T03:13:12;98968.78;;;0.75;85.08
6194;BME280;3130;41.564;23.280;2023-02-02T03:15:40;99120.63;;;1.76;85.31
6194;BME280;3130;41.564;23.280;2023-02-02T03:18:15;98918.06;;;0.47;85.33
6194;BME280;3130;41.564;23.280;2023-02-02T03:20:45;99020.59;;;0.92;85.63
6194;BME280;3130;41.564;23.280;2023-02-02T03:23:13;98721.19;;;-1.07;85.59
6194;BME280;3130;41.564;23.280;2023-02-02T03:25:42;99124.72;;;1.44;86.51
6194;BME280;3130;41.564;23.280;2023-02-02T03:28:10;98752.78;;;-0.90;85.84
6194;BME280;3130;41.564;23.280;2023-02-02T03:30:39;99111.66;;;1.24;87.14
6194;BME280;3130;41.564;23.280;2023-02-02T03:33:08;98948.09;;;0.17;87.29
6194;BME280;3130;41.564;23.280;2023-02-02T03:35:59;98988.84;;;0.38;86.53
6194;BME280;3130;41.564;23.280;2023-02-02T03:38:26;98986.53;;;0.28;87.68
6194;BME280;3130;41.564;23.280;2023-02-02T03:40:53;99134.53;;;1.15;87.03
6194;BME280;3130;41.564;23.280;2023-02-02T03:43:26;98831.06;;;-0.59;87.00
6194;BME280;3130;41.564;23.280;2023-02-02T03:46:02;98998.88;;;0.41;86.72
6194;BME280;3130;41.564;23.280;2023-02-02T03:48:31;98990.56;;;0.36;87.22
6194;BME280;3130;41.564;23.280;2023-02-02T03:51:04;98917.75;;;-0.24;87.39
6194;BME280;3130;41.564;23.280;2023-02-02T03:53:33;99139.72;;;1.07;87.93
6194;BME280;3130;41.564;23.280;2023-02-02T03:56:01;99088.34;;;0.68;88.40
6194;BME280;3130;41.564;23.280;2023-02-02T03:58:29;99047.47;;;0.49;88.46
6194;BME280;3130;41.564;23.280;2023-02-02T04:01:27;99124.06;;;0.92;88.68
6194;BME280;3130;41.564;23.280;2023-02-02T04:04:29;99154.22;;;0.98;89.55
6194;BME280;3130;41.564;23.280;2023-02-02T04:07:36;98929.75;;;-0.38;89.33
6194;BME280;3130;41.564;23.280;2023-02-02T04:10:31;98733.72;;;-1.54;88.37
6194;BME280;3130;41.564;23.280;2023-02-02T04:13:38;98848.38;;;-0.91;88.25
6194;BME280;3130;41.564;23.280;2023-02-02T04:17:04;98856.56;;;-0.79;88.69
6194;BME280;3130;41.564;23.280;2023-02-02T04:19:48;98937.22;;;-0.35;88.74
6194;BME280;3130;41.564;23.280;2023-02-02T04:22:52;98801.81;;;-1.14;88.47
6194;BME280;3130;41.564;23.280;2023-02-02T04:25:25;99023.75;;;0.14;88.64
6194;BME280;3130;41.564;23.280;2023-02-02T04:30:59;98812.88;;;-1.24;88.50
6194;BME280;3130;41.564;23.280;2023-02-02T04:36:54;98788.78;;;-1.40;89.00
6194;BME280;3130;41.564;23.280;2023-02-02T04:39:57;99155.41;;;0.79;89.23
6194;BME280;3130;41.564;23.280;2023-02-02T04:42:36;99159.91;;;0.62;89.19
6194;BME280;3130;41.564;23.280;2023-02-02T04:45:31;99072.50;;;0.11;89.46
6194;BME280;3130;41.564;23.280;2023-02-02T04:48:22;98790.59;;;-1.48;89.27
6194;BME280;3130;41.564;23.280;2023-02-02T04:51:06;98778.16;;;-1.56;89.30
6194;BME280;3130;41.564;23.280;2023-02-02T04:54:16;99002.50;;;-0.20;89.49
6194;BME280;3130;41.564;23.280;2023-02-02T04:57:04;99017.59;;;-0.21;88.88
6194;BME280;3130;41.564;23.280;2023-02-02T04:59:51;98759.34;;;-1.87;89.34
6194;BME280;3130;41.564;23.280;2023-02-02T05:02:28;98840.72;;;-1.39;89.39
6194;BME280;3130;41.564;23.280;2023-02-02T05:05:08;99205.13;;;0.73;89.47
6194;BME280;3130;41.564;23.280;2023-02-02T05:07:46;99190.00;;;0.74;89.79
6194;BME280;3130;41.564;23.280;2023-02-02T05:10:31;98843.28;;;-1.41;89.08
6194;BME280;3130;41.564;23.280;2023-02-02T05:13:22;98819.25;;;-1.60;89.38
6194;BME280;3130;41.564;23.280;2023-02-02T05:16:07;99053.03;;;-0.30;89.92
6194;BME280;3130;41.564;23.280;2023-02-02T05:18:46;99192.81;;;0.55;89.98
6194;BME280;3130;41.564;23.280;2023-02-02T05:21:23;98782.06;;;-1.97;90.24
6194;BME280;3130;41.564;23.280;2023-02-02T05:23:57;98812.72;;;-1.74;89.84
6194;BME280;3130;41.564;23.280;2023-02-02T05:26:26;99057.84;;;-0.17;90.59
6194;BME280;3130;41.564;23.280;2023-02-02T05:32:38;98973.94;;;-0.73;90.45
6194;BME280;3130;41.564;23.280;2023-02-02T05:39:20;98842.53;;;-1.47;89.33
6194;BME280;3130;41.564;23.280;2023-02-02T05:59:40;98864.50;;;-1.61;89.74
6194;BME280;3130;41.564;23.280;2023-02-02T06:02:36;99072.81;;;-0.08;89.77
6194;BME280;3130;41.564;23.280;2023-02-02T06:05:59;98848.13;;;-1.29;88.39
6194;BME280;3130;41.564;23.280;2023-02-02T06:09:11;98995.88;;;-0.27;88.02
6194;BME280;3130;41.564;23.280;2023-02-02T06:15:08;99027.41;;;-0.03;87.35
6194;BME280;3130;41.564;23.280;2023-02-02T06:17:57;98883.53;;;-0.85;87.07
6194;BME280;3130;41.564;23.280;2023-02-02T06:20:28;98905.19;;;-0.77;86.27
6194;BME280;3130;41.564;23.280;2023-02-02T06:22:58;99254.50;;;1.37;86.20
6194;BME280;3130;41.564;23.280;2023-02-02T06:25:37;99046.72;;;-0.04;86.42
6194;BME280;3130;41.564;23.280;2023-02-02T06:28:24;99116.47;;;0.45;86.14
6194;BME280;3130;41.564;23.280;2023-02-02T06:31:01;99287.47;;;1.31;86.49
6194;BME280;3130;41.564;23.280;2023-02-02T06:33:52;99041.00;;;-0.15;86.28
6194;BME280;3130;41.564;23.280;2023-02-02T06:36:26;98971.75;;;-0.40;86.56
6194;BME280;3130;41.564;23.280;2023-02-02T06:39:00;99053.91;;;0.18;85.85
6194;BME280;3130;41.564;23.280;2023-02-02T06:41:35;98908.50;;;-0.73;85.59
6194;BME280;3130;41.564;23.280;2023-02-02T06:44:16;98857.78;;;-1.02;85.28
6194;BME280;3130;41.564;23.280;2023-02-02T06:46:52;99164.66;;;0.79;86.07
6194;BME280;3130;41.564;23.280;2023-02-02T06:49:22;99277.13;;;1.43;84.99
6194;BME280;3130;41.564;23.280;2023-02-02T06:52:07;98928.38;;;-0.57;85.09
6194;BME280;3130;41.564;23.280;2023-02-02T06:54:46;98918.25;;;-0.54;85.53
6194;BME280;3130;41.564;23.280;2023-02-02T06:57:35;99291.66;;;1.76;85.26
6194;BME280;3130;41.564;23.280;2023-02-02T07:00:14;99196.19;;;1.47;84.37
6194;BME280;3130;41.564;23.280;2023-02-02T07:02:53;98886.81;;;-0.30;84.92
6194;BME280;3130;41.564;23.280;2023-02-02T07:05:35;98903.06;;;-0.01;84.08
6194;BME280;3130;41.564;23.280;2023-02-02T07:08:21;99197.94;;;1.85;84.08
6194;BME280;3130;41.564;23.280;2023-02-02T07:11:07;99266.31;;;2.57;83.93
6194;BME280;3130;41.564;23.280;2023-02-02T07:13:45;98891.31;;;0.39;83.01
6194;BME280;3130;41.564;23.280;2023-02-02T07:16:37;99269.78;;;2.90;82.59
6194;BME280;3130;41.564;23.280;2023-02-02T07:19:07;99283.66;;;3.08;81.91
6194;BME280;3130;41.564;23.280;2023-02-02T07:21:40;99122.19;;;2.19;81.25
6194;BME280;3130;41.564;23.280;2023-02-02T07:24:14;99285.63;;;3.31;81.19
6194;BME280;3130;41.564;23.280;2023-02-02T07:26:43;99294.13;;;3.28;80.96
6194;BME280;3130;41.564;23.280;2023-02-02T07:29:11;99025.72;;;1.65;81.03
6194;BME280;3130;41.564;23.280;2023-02-02T07:31:44;99212.72;;;2.77;81.54
6194;BME280;3130;41.564;23.280;2023-02-02T07:34:12;99176.00;;;2.59;81.63
6194;BME280;3130;41.564;23.280;2023-02-02T07:36:39;99311.88;;;3.60;81.15
6194;BME280;3130;41.564;23.280;2023-02-02T07:39:10;99111.97;;;2.88;80.37
6194;BME280;3130;41.564;23.280;2023-02-02T07:41:47;99290.06;;;4.72;78.85
6194;BME280;3130;41.564;23.280;2023-02-02T07:44:21;99284.94;;;5.49;77.00
6194;BME280;3130;41.564;23.280;2023-02-02T07:46:56;99285.91;;;6.40;73.90
6194;BME280;3130;41.564;23.280;2023-02-02T07:49:27;99018.03;;;5.46;69.44
6194;BME280;3130;41.564;23.280;2023-02-02T07:51:59;99017.19;;;6.31;66.42
6194;BME280;3130;41.564;23.280;2023-02-02T07:54:30;99191.66;;;8.17;61.88
6194;BME280;3130;41.564;23.280;2023-02-02T07:57:00;99026.41;;;7.84;58.99
6194;BME280;3130;41.564;23.280;2023-02-02T07:59:38;99029.13;;;8.33;54.87
6194;BME280;3130;41.564;23.280;2023-02-02T08:02:36;99023.69;;;8.56;53.31
6194;BME280;3130;41.564;23.280;2023-02-02T08:05:09;99283.16;;;10.48;51.92
6194;BME280;3130;41.564;23.280;2023-02-02T08:07:41;99146.63;;;9.83;50.58
6194;BME280;3130;41.564;23.280;2023-02-02T08:10:12;99294.88;;;11.13;48.89
6194;BME280;3130;41.564;23.280;2023-02-02T08:12:42;99128.03;;;10.41;47.02
6194;BME280;3130;41.564;23.280;2023-02-02T08:15:14;99041.03;;;9.93;46.42
6194;BME280;3130;41.564;23.280;2023-02-02T08:17:48;99290.56;;;11.73;46.33
6194;BME280;3130;41.564;23.280;2023-02-02T08:20:17;99191.16;;;11.02;45.70
6194;BME280;3130;41.564;23.280;2023-02-02T08:22:45;99199.84;;;11.29;45.78
6194;BME280;3130;41.564;23.280;2023-02-02T08:25:12;99289.41;;;12.06;45.42
6194;BME280;3130;41.564;23.280;2023-02-02T08:27:42;99177.66;;;11.42;44.83
6194;BME280;3130;41.564;23.280;2023-02-02T08:30:11;99295.16;;;12.23;45.24
6194;BME280;3130;41.564;23.280;2023-02-02T08:32:45;99022.25;;;10.81;44.74
6194;BME280;3130;41.564;23.280;2023-02-02T08:35:17;99028.13;;;10.97;43.63
6194;BME280;3130;41.564;23.280;2023-02-02T08:37:47;99302.91;;;12.78;43.64
6194;BME280;3130;41.564;23.280;2023-02-02T08:40:23;99094.78;;;11.54;43.71
6194;BME280;3130;41.564;23.280;2023-02-02T08:42:58;99280.19;;;12.44;43.73
6194;BME280;3130;41.564;23.280;2023-02-02T08:45:35;99006.47;;;10.59;44.21
6194;BME280;3130;41.564;23.280;2023-02-02T08:48:09;99122.34;;;11.08;44.53
6194;BME280;3130;41.564;23.280;2023-02-02T08:50:41;99190.16;;;11.48;44.77
6194;BME280;3130;41.564;23.280;2023-02-02T08:53:09;99245.63;;;11.80;44.59
6194;BME280;3130;41.564;23.280;2023-02-02T08:55:36;99271.22;;;11.52;46.35
6194;BME280;3130;41.564;23.280;2023-02-02T08:58:16;99193.00;;;10.55;47.75
6194;BME280;3130;41.564;23.280;2023-02-02T09:00:43;98947.09;;;9.02;48.37
6194;BME280;3130;41.564;23.280;2023-02-02T09:03:18;99259.16;;;10.64;49.29
6194;BME280;3130;41.564;23.280;2023-02-02T09:06:29;99238.31;;;10.55;50.17
6194;BME280;3130;41.564;23.280;2023-02-02T09:09:18;98945.47;;;8.54;50.93
6194;BME280;3130;41.564;23.280;2023-02-02T09:11:56;98986.50;;;8.51;51.78
6194;BME280;3130;41.564;23.280;2023-02-02T09:14:28;99208.84;;;9.52;52.64
6194;BME280;3130;41.564;23.280;2023-02-02T09:16:58;99062.91;;;8.21;54.41
6194;BME280;3130;41.564;23.280;2023-02-02T09:19:30;99169.00;;;8.64;55.19
6194;BME280;3130;41.564;23.280;2023-02-02T09:22:01;99122.53;;;8.39;55.74
6194;BME280;3130;41.564;23.280;2023-02-02T09:24:31;99095.56;;;8.33;56.00
6194;BME280;3130;41.564;23.280;2023-02-02T09:27:09;98930.91;;;7.36;55.61
6194;BME280;3130;41.564;23.280;2023-02-02T09:30:08;98953.50;;;7.43;56.51
6194;BME280;3130;41.564;23.280;2023-02-02T09:36:22;99147.97;;;8.59;57.90
6194;BME280;3130;41.564;23.280;2023-02-02T09:38:55;99041.47;;;8.07;57.56
6194;BME280;3130;41.564;23.280;2023-02-02T09:45:02;99087.44;;;8.42;56.33
6194;BME280;3130;41.564;23.280;2023-02-02T09:47:50;99187.88;;;9.12;56.85
6194;BME280;3130;41.564;23.280;2023-02-02T09:50:44;99186.31;;;9.26;56.27
6194;BME280;3130;41.564;23.280;2023-02-02T09:53:19;99181.75;;;9.31;55.57
6194;BME280;3130;41.564;23.280;2023-02-02T09:55:54;98981.91;;;8.06;54.72
6194;BME280;3130;41.564;23.280;2023-02-02T09:58:27;99173.56;;;9.25;55.47
6194;BME280;3130;41.564;23.280;2023-02-02T10:01:02;99035.94;;;8.50;56.02
6194;BME280;3130;41.564;23.280;2023-02-02T10:03:36;99162.34;;;9.44;55.18
6194;BME280;3130;41.564;23.280;2023-02-02T10:06:17;99148.75;;;9.59;55.20
6194;BME280;3130;41.564;23.280;2023-02-02T10:08:54;99079.81;;;9.24;54.16
6194;BME280;3130;41.564;23.280;2023-02-02T10:11:31;98978.69;;;8.86;53.07
6194;BME280;3130;41.564;23.280;2023-02-02T10:14:02;99159.13;;;10.04;52.33
6194;BME280;3130;41.564;23.280;2023-02-02T10:16:33;98895.34;;;8.51;50.95
6194;BME280;3130;41.564;23.280;2023-02-02T10:19:02;99124.13;;;10.04;50.55
6194;BME280;3130;41.564;23.280;2023-02-02T10:21:42;98858.72;;;8.51;50.75
6194;BME280;3130;41.564;23.280;2023-02-02T10:24:20;98916.41;;;8.87;49.79
6194;BME280;3130;41.564;23.280;2023-02-02T10:26:54;98831.94;;;8.42;50.25
6194;BME280;3130;41.564;23.280;2023-02-02T10:29:33;99075.09;;;9.95;48.80
6194;BME280;3130;41.564;23.280;2023-02-02T11:17:24;98757.47;;;10.90;41.67
6194;BME280;3130;41.564;23.280;2023-02-02T11:24:23;98805.06;;;11.85;41.02
6194;BME280;3130;41.564;23.280;2023-02-02T13:56:56;98667.94;;;11.99;35.91
6194;BME280;3130;41.564;23.280;2023-02-02T13:59:56;98900.44;;;13.52;35.94
6194;BME280;3130;41.564;23.280;2023-02-02T14:07:10;98613.66;;;12.03;36.19
6194;BME280;3130;41.564;23.280;2023-02-02T14:10:04;98897.56;;;13.91;35.96
6194;BME280;3130;41.564;23.280;2023-02-02T14:12:53;98719.38;;;13.05;35.49
6194;BME280;3130;41.564;23.280;2023-02-02T14:15:40;98889.03;;;14.46;35.72
6194;BME280;3130;41.564;23.280;2023-02-02T14:22:01;98875.28;;;14.68;35.17
6194;BME280;3130;41.564;23.280;2023-02-02T14:38:23;98863.19;;;14.13;36.07
6194;BME280;3130;41.564;23.280;2023-02-02T14:47:54;98867.19;;;13.83;37.89
6194;BME280;3130;41.564;23.280;2023-02-02T14:57:55;98852.88;;;13.90;37.69
6194;BME280;3130;41.564;23.280;2023-02-02T15:18:20;98676.97;;;12.63;37.24
6194;BME280;3130;41.564;23.280;2023-02-02T15:21:27;98838.81;;;13.49;38.11
6194;BME280;3130;41.564;23.280;2023-02-02T15:24:53;98829.63;;;13.34;39.10
6194;BME280;3130;41.564;23.280;2023-02-02T15:39:46;98556.28;;;10.69;42.83
6194;BME280;3130;41.564;23.280;2023-02-02T15:42:18;98834.03;;;12.37;42.85
6194;BME280;3130;41.564;23.280;2023-02-02T15:45:35;98640.97;;;11.06;45.33
6194;BME280;3130;41.564;23.280;2023-02-02T15:48:24;98496.78;;;9.74;48.46
6194;BME280;3130;41.564;23.280;2023-02-02T15:50:55;98639.41;;;10.26;49.94
6194;BME280;3130;41.564;23.280;2023-02-02T15:53:26;98827.47;;;11.18;51.71
6194;BME280;3130;41.564;23.280;2023-02-02T15:56:37;98738.81;;;10.35;53.16
6194;BME280;3130;41.564;23.280;2023-02-02T16:03:10;98837.19;;;10.60;56.70
6194;BME280;3130;41.564;23.280;2023-02-02T16:05:53;98838.00;;;10.47;58.47
6194;BME280;3130;41.564;23.280;2023-02-02T16:08:25;98813.41;;;10.16;58.94
6194;BME280;3130;41.564;23.280;2023-02-02T16:11:01;98633.56;;;9.00;58.44
6194;BME280;3130;41.564;23.280;2023-02-02T16:13:31;98834.28;;;10.24;57.86
6194;BME280;3130;41.564;23.280;2023-02-02T16:16:00;98689.22;;;9.24;57.82
6194;BME280;3130;41.564;23.280;2023-02-02T16:18:28;98880.03;;;10.30;58.30
6194;BME280;3130;41.564;23.280;2023-02-02T16:20:58;98775.63;;;9.63;57.98
6194;BME280;3130;41.564;23.280;2023-02-02T16:23:29;98864.22;;;9.95;57.96
6194;BME280;3130;41.564;23.280;2023-02-02T16:25:59;98762.19;;;9.16;57.39
6194;BME280;3130;41.564;23.280;2023-02-02T16:28:28;98794.44;;;9.18;56.56
6194;BME280;3130;41.564;23.280;2023-02-02T16:31:00;98889.28;;;9.60;55.17
6194;BME280;3130;41.564;23.280;2023-02-02T16:33:32;98854.44;;;9.28;52.58
6194;BME280;3130;41.564;23.280;2023-02-02T16:36:15;98904.09;;;9.69;48.65
6194;BME280;3130;41.564;23.280;2023-02-02T16:38:42;99015.03;;;10.30;48.70
6194;BME280;3130;41.564;23.280;2023-02-02T16:41:11;98926.72;;;9.77;49.91
6194;BME280;3130;41.564;23.280;2023-02-02T16:43:39;98798.88;;;9.01;50.43
6194;BME280;3130;41.564;23.280;2023-02-02T16:46:10;99065.25;;;10.48;51.12
6194;BME280;3130;41.564;23.280;2023-02-02T16:48:44;99004.13;;;9.82;52.81
6194;BME280;3130;41.564;23.280;2023-02-02T16:51:27;98953.97;;;9.33;55.69
6194;BME280;3130;41.564;23.280;2023-02-02T16:54:02;98754.66;;;8.06;58.10
6194;BME280;3130;41.564;23.280;2023-02-02T16:56:47;98775.56;;;7.97;63.33
6194;BME280;3130;41.564;23.280;2023-02-02T16:59:17;98685.97;;;7.05;67.28
6194;BME280;3130;41.564;23.280;2023-02-02T17:01:58;98943.31;;;8.29;68.76
6194;BME280;3130;41.564;23.280;2023-02-02T17:04:31;98823.81;;;7.53;69.27
6194;BME280;3130;41.564;23.280;2023-02-02T17:07:09;98682.66;;;6.69;70.11
6194;BME280;3130;41.564;23.280;2023-02-02T17:09:39;98996.69;;;8.68;70.99
6194;BME280;3130;41.564;23.280;2023-02-02T17:12:25;98661.59;;;6.49;70.27
6194;BME280;3130;41.564;23.280;2023-02-02T17:15:01;98834.84;;;7.53;70.35
6194;BME280;3130;41.564;23.280;2023-02-02T17:17:42;98696.53;;;6.64;70.21
6194;BME280;3130;41.564;23.280;2023-02-02T17:20:35;98639.69;;;6.28;70.26
6194;BME280;3130;41.564;23.280;2023-02-02T17:23:21;98714.59;;;6.76;69.45
6194;BME280;3130;41.564;23.280;2023-02-02T17:25:48;98875.72;;;7.86;69.46
6194;BME280;3130;41.564;23.280;2023-02-02T17:28:26;98867.63;;;7.78;69.39
6194;BME280;3130;41.564;23.280;2023-02-02T17:31:10;98910.63;;;8.02;68.95
6194;BME280;3130;41.564;23.280;2023-02-02T17:33:52;98868.22;;;7.83;67.51
6194;BME280;3130;41.564;23.280;2023-02-02T17:36:27;98704.53;;;6.56;70.33
6194;BME280;3130;41.564;23.280;2023-02-02T17:39:00;98747.63;;;6.61;71.17
6194;BME280;3130;41.564;23.280;2023-02-02T17:41:55;98697.09;;;5.98;73.34
6194;BME280;3130;41.564;23.280;2023-02-02T17:44:40;98961.44;;;7.56;75.20
6194;BME280;3130;41.564;23.280;2023-02-02T17:47:24;99067.44;;;7.98;76.73
6194;BME280;3130;41.564;23.280;2023-02-02T17:50:03;99032.88;;;7.91;77.18
6194;BME280;3130;41.564;23.280;2023-02-02T17:52:35;98867.19;;;6.82;76.74
6194;BME280;3130;41.564;23.280;2023-02-02T17:55:21;98936.69;;;7.39;76.62
6194;BME280;3130;41.564;23.280;2023-02-02T17:57:57;99067.25;;;8.19;76.72
6194;BME280;3130;41.564;23.280;2023-02-02T18:00:45;98935.13;;;7.37;76.53
6194;BME280;3130;41.564;23.280;2023-02-02T18:03:42;98716.88;;;6.28;75.92
6194;BME280;3130;41.564;23.280;2023-02-02T18:09:42;98728.88;;;6.62;72.88
6194;BME280;3130;41.564;23.280;2023-02-02T18:12:19;98909.97;;;7.82;74.17
6194;BME280;3130;41.564;23.280;2023-02-02T18:18:56;99050.00;;;8.58;72.89
6194;BME280;3130;41.564;23.280;2023-02-02T18:21:51;98924.06;;;7.72;72.31
6194;BME280;3130;41.564;23.280;2023-02-02T18:28:05;99088.09;;;8.80;70.19
6194;BME280;3130;41.564;23.280;2023-02-02T18:30:45;98850.19;;;7.18;69.36
6194;BME280;3130;41.564;23.280;2023-02-02T18:33:20;98945.91;;;7.60;70.49
6194;BME280;3130;41.564;23.280;2023-02-02T18:35:48;99056.31;;;7.99;71.68
6194;BME280;3130;41.564;23.280;2023-02-02T18:38:19;99147.16;;;8.23;73.03
6194;BME280;3130;41.564;23.280;2023-02-02T18:40:54;98893.22;;;6.13;74.54
6194;BME280;3130;41.564;23.280;2023-02-02T18:43:24;98960.78;;;6.00;76.35
6194;BME280;3130;41.564;23.280;2023-02-02T18:45:58;98828.25;;;5.25;75.89
6194;BME280;3130;41.564;23.280;2023-02-02T18:48:26;98955.84;;;5.76;77.94
6194;BME280;3130;41.564;23.280;2023-02-02T18:51:06;98875.72;;;4.82;79.24
6194;BME280;3130;41.564;23.280;2023-02-02T18:54:15;99228.13;;;6.85;79.91
6194;BME280;3130;41.564;23.280;2023-02-02T18:56:57;98866.03;;;4.47;81.48
6194;BME280;3130;41.564;23.280;2023-02-02T18:59:27;99217.53;;;6.31;83.13
6194;BME280;3130;41.564;23.280;2023-02-02T19:02:08;98882.84;;;4.27;84.07
6194;BME280;3130;41.564;23.280;2023-02-02T19:05:09;99242.16;;;6.52;84.59
6194;BME280;3130;41.564;23.280;2023-02-02T19:07:54;99003.84;;;4.96;85.09
6194;BME280;3130;41.564;23.280;2023-02-02T19:10:54;99263.31;;;6.54;86.63
6194;BME280;3130;41.564;23.280;2023-02-02T19:14:13;98924.19;;;4.53;86.65
6194;BME280;3130;41.564;23.280;2023-02-02T19:17:18;98992.53;;;5.05;86.96
6194;BME280;3130;41.564;23.280;2023-02-02T19:19:58;99110.81;;;5.59;87.31
6194;BME280;3130;41.564;23.280;2023-02-02T19:22:58;99176.22;;;6.01;87.93
6194;BME280;3130;41.564;23.280;2023-02-02T19:25:45;99163.72;;;5.96;87.54
6194;BME280;3130;41.564;23.280;2023-02-02T19:31:34;98905.13;;;4.19;87.33
6194;BME280;3130;41.564;23.280;2023-02-02T19:37:29;99151.38;;;5.62;89.00
6194;BME280;3130;41.564;23.280;2023-02-02T19:40:20;99093.22;;;5.30;89.15
6194;BME280;3130;41.564;23.280;2023-02-02T19:46:56;99217.53;;;5.87;90.39
6194;BME280;3130;41.564;23.280;2023-02-02T19:49:55;99102.56;;;5.07;90.93
6194;BME280;3130;41.564;23.280;2023-02-02T19:53:18;98881.28;;;3.76;90.67
6194;BME280;3130;41.564;23.280;2023-02-02T19:56:29;99224.69;;;5.98;91.21